Charlevoix, Michigan
Current Conditions -  °F | °C
As of 5:35 PM on Friday 24 Oct 2014 (Local Time) from KCVX Reporting Station
Overcast Overcast  
Wind Chill: 54°   Ceiling: 1400
Heat Index: 54°   Visibility: 10mi
Dew Point: 49°   Wind: 5mph
Humidity: 85%   Direction: 230°SW
Pressure: 29.96"   Gusts: NA
Location:  45.32°N, 85.26°W
Report Text: KCVX 242135Z AUTO 23004KT 10SM OVC014 12/10 A2996 RMK AO2 T01210097
Loading
Personal Weather Stations






























Interactive Weather Map
Tropical Storm Tracking
New forecast layout! Learn more

10-Day Weather Forecast

Advertisements
Track Severe Weather on mobile